sensor_id;sensor_type;location;lat;lon;timestamp;P1;durP1;ratioP1;P2;durP2;ratioP2
9117;SDS011;4594;50.994;7.126;2023-04-24T00:00:53;1.53;;;1.53;;
9117;SDS011;4594;50.994;7.126;2023-04-24T00:03:23;1.50;;;1.50;;
9117;SDS011;4594;50.994;7.126;2023-04-24T00:05:49;1.57;;;1.57;;
9117;SDS011;4594;50.994;7.126;2023-04-24T00:08:16;1.43;;;1.43;;
9117;SDS011;4594;50.994;7.126;2023-04-24T00:10:42;1.77;;;1.77;;
9117;SDS011;4594;50.994;7.126;2023-04-24T00:13:08;1.60;;;1.60;;
9117;SDS011;4594;50.994;7.126;2023-04-24T00:15:33;2.27;;;1.70;;
9117;SDS011;4594;50.994;7.126;2023-04-24T00:17:59;1.43;;;1.43;;
9117;SDS011;4594;50.994;7.126;2023-04-24T00:20:26;1.50;;;1.50;;
9117;SDS011;4594;50.994;7.126;2023-04-24T00:22:54;1.50;;;1.50;;
9117;SDS011;4594;50.994;7.126;2023-04-24T00:25:20;1.67;;;1.67;;
9117;SDS011;4594;50.994;7.126;2023-04-24T00:27:46;1.60;;;1.60;;
9117;SDS011;4594;50.994;7.126;2023-04-24T00:30:12;1.70;;;1.70;;
9117;SDS011;4594;50.994;7.126;2023-04-24T00:32:38;1.60;;;1.60;;
9117;SDS011;4594;50.994;7.126;2023-04-24T00:35:04;1.70;;;1.70;;
9117;SDS011;4594;50.994;7.126;2023-04-24T00:37:31;1.60;;;1.60;;
9117;SDS011;4594;50.994;7.126;2023-04-24T00:39:57;1.70;;;1.70;;
9117;SDS011;4594;50.994;7.126;2023-04-24T00:42:22;1.80;;;1.70;;
9117;SDS011;4594;50.994;7.126;2023-04-24T00:44:49;2.00;;;1.90;;
9117;SDS011;4594;50.994;7.126;2023-04-24T00:47:15;1.80;;;1.70;;
9117;SDS011;4594;50.994;7.126;2023-04-24T00:49:42;1.70;;;1.70;;
9117;SDS011;4594;50.994;7.126;2023-04-24T00:52:07;1.80;;;1.80;;
9117;SDS011;4594;50.994;7.126;2023-04-24T00:54:34;2.10;;;1.80;;
9117;SDS011;4594;50.994;7.126;2023-04-24T00:57:01;1.83;;;1.73;;
9117;SDS011;4594;50.994;7.126;2023-04-24T00:59:30;1.60;;;1.60;;
9117;SDS011;4594;50.994;7.126;2023-04-24T01:01:57;1.60;;;1.60;;
9117;SDS011;4594;50.994;7.126;2023-04-24T01:04:23;2.07;;;1.90;;
9117;SDS011;4594;50.994;7.126;2023-04-24T01:06:51;1.70;;;1.60;;
9117;SDS011;4594;50.994;7.126;2023-04-24T01:09:17;1.83;;;1.83;;
9117;SDS011;4594;50.994;7.126;2023-04-24T01:11:44;1.93;;;1.83;;
9117;SDS011;4594;50.994;7.126;2023-04-24T01:14:09;1.67;;;1.63;;
9117;SDS011;4594;50.994;7.126;2023-04-24T01:16:36;1.87;;;1.77;;
9117;SDS011;4594;50.994;7.126;2023-04-24T01:19:03;1.90;;;1.90;;
9117;SDS011;4594;50.994;7.126;2023-04-24T01:21:31;2.40;;;2.00;;
9117;SDS011;4594;50.994;7.126;2023-04-24T01:24:02;1.80;;;1.80;;
9117;SDS011;4594;50.994;7.126;2023-04-24T01:26:30;1.83;;;1.83;;
9117;SDS011;4594;50.994;7.126;2023-04-24T01:28:55;2.23;;;2.13;;
9117;SDS011;4594;50.994;7.126;2023-04-24T01:31:22;1.90;;;1.83;;
9117;SDS011;4594;50.994;7.126;2023-04-24T01:33:48;2.00;;;2.00;;
9117;SDS011;4594;50.994;7.126;2023-04-24T01:36:16;1.80;;;1.80;;
9117;SDS011;4594;50.994;7.126;2023-04-24T01:38:42;2.00;;;1.90;;
9117;SDS011;4594;50.994;7.126;2023-04-24T01:41:09;2.10;;;2.00;;
9117;SDS011;4594;50.994;7.126;2023-04-24T01:43:35;1.90;;;1.80;;
9117;SDS011;4594;50.994;7.126;2023-04-24T01:46:00;2.40;;;2.00;;
9117;SDS011;4594;50.994;7.126;2023-04-24T01:48:26;1.90;;;1.90;;
9117;SDS011;4594;50.994;7.126;2023-04-24T01:50:53;2.30;;;2.20;;
9117;SDS011;4594;50.994;7.126;2023-04-24T01:53:19;2.43;;;2.23;;
9117;SDS011;4594;50.994;7.126;2023-04-24T01:55:44;2.30;;;2.30;;
9117;SDS011;4594;50.994;7.126;2023-04-24T01:58:10;2.33;;;2.23;;
9117;SDS011;4594;50.994;7.126;2023-04-24T02:00:36;2.87;;;2.60;;
9117;SDS011;4594;50.994;7.126;2023-04-24T02:03:01;2.60;;;2.40;;
9117;SDS011;4594;50.994;7.126;2023-04-24T02:05:27;2.70;;;2.60;;
9117;SDS011;4594;50.994;7.126;2023-04-24T02:07:53;2.50;;;2.40;;
9117;SDS011;4594;50.994;7.126;2023-04-24T02:10:19;3.20;;;3.00;;
9117;SDS011;4594;50.994;7.126;2023-04-24T02:12:45;3.13;;;3.03;;
9117;SDS011;4594;50.994;7.126;2023-04-24T02:15:11;3.27;;;3.07;;
9117;SDS011;4594;50.994;7.126;2023-04-24T02:17:37;3.40;;;3.20;;
9117;SDS011;4594;50.994;7.126;2023-04-24T02:20:04;2.83;;;2.73;;
9117;SDS011;4594;50.994;7.126;2023-04-24T02:22:31;3.33;;;3.13;;
9117;SDS011;4594;50.994;7.126;2023-04-24T02:24:57;3.73;;;3.43;;
9117;SDS011;4594;50.994;7.126;2023-04-24T02:27:23;4.37;;;3.47;;
9117;SDS011;4594;50.994;7.126;2023-04-24T02:29:48;3.43;;;3.30;;
9117;SDS011;4594;50.994;7.126;2023-04-24T02:32:14;3.43;;;3.13;;
9117;SDS011;4594;50.994;7.126;2023-04-24T02:34:40;3.57;;;3.33;;
9117;SDS011;4594;50.994;7.126;2023-04-24T02:37:06;4.13;;;3.40;;
9117;SDS011;4594;50.994;7.126;2023-04-24T02:39:31;3.70;;;3.40;;
9117;SDS011;4594;50.994;7.126;2023-04-24T02:41:57;4.10;;;3.80;;
9117;SDS011;4594;50.994;7.126;2023-04-24T02:44:23;4.77;;;3.93;;
9117;SDS011;4594;50.994;7.126;2023-04-24T02:46:48;5.27;;;3.77;;
9117;SDS011;4594;50.994;7.126;2023-04-24T02:49:14;3.77;;;3.57;;
9117;SDS011;4594;50.994;7.126;2023-04-24T02:51:40;4.13;;;3.93;;
9117;SDS011;4594;50.994;7.126;2023-04-24T02:54:06;4.10;;;3.80;;
9117;SDS011;4594;50.994;7.126;2023-04-24T02:56:36;3.90;;;3.70;;
9117;SDS011;4594;50.994;7.126;2023-04-24T02:59:02;4.57;;;4.17;;
9117;SDS011;4594;50.994;7.126;2023-04-24T03:01:28;4.00;;;3.70;;
9117;SDS011;4594;50.994;7.126;2023-04-24T03:03:54;4.03;;;3.73;;
9117;SDS011;4594;50.994;7.126;2023-04-24T03:06:19;4.30;;;3.90;;
9117;SDS011;4594;50.994;7.126;2023-04-24T03:08:46;3.97;;;3.67;;
9117;SDS011;4594;50.994;7.126;2023-04-24T03:11:11;5.87;;;4.13;;
9117;SDS011;4594;50.994;7.126;2023-04-24T03:13:37;4.87;;;4.47;;
9117;SDS011;4594;50.994;7.126;2023-04-24T03:16:03;4.07;;;3.80;;
9117;SDS011;4594;50.994;7.126;2023-04-24T03:18:29;4.53;;;4.17;;
9117;SDS011;4594;50.994;7.126;2023-04-24T03:20:54;6.10;;;4.17;;
9117;SDS011;4594;50.994;7.126;2023-04-24T03:23:20;4.50;;;4.10;;
9117;SDS011;4594;50.994;7.126;2023-04-24T03:25:46;5.63;;;5.03;;
9117;SDS011;4594;50.994;7.126;2023-04-24T03:28:13;5.40;;;4.87;;
9117;SDS011;4594;50.994;7.126;2023-04-24T03:30:39;5.27;;;4.87;;
9117;SDS011;4594;50.994;7.126;2023-04-24T03:33:05;5.00;;;4.50;;
9117;SDS011;4594;50.994;7.126;2023-04-24T03:35:31;4.57;;;4.27;;
9117;SDS011;4594;50.994;7.126;2023-04-24T03:37:57;6.03;;;4.70;;
9117;SDS011;4594;50.994;7.126;2023-04-24T03:40:23;4.70;;;4.40;;
9117;SDS011;4594;50.994;7.126;2023-04-24T03:42:48;4.00;;;3.80;;
9117;SDS011;4594;50.994;7.126;2023-04-24T03:45:14;5.23;;;4.27;;
9117;SDS011;4594;50.994;7.126;2023-04-24T03:47:40;4.67;;;4.33;;
9117;SDS011;4594;50.994;7.126;2023-04-24T03:50:06;4.93;;;4.53;;
9117;SDS011;4594;50.994;7.126;2023-04-24T03:52:32;4.90;;;4.50;;
9117;SDS011;4594;50.994;7.126;2023-04-24T03:54:57;6.37;;;4.53;;
9117;SDS011;4594;50.994;7.126;2023-04-24T03:57:23;4.70;;;4.40;;
9117;SDS011;4594;50.994;7.126;2023-04-24T03:59:49;6.07;;;4.93;;
9117;SDS011;4594;50.994;7.126;2023-04-24T04:02:15;4.90;;;4.60;;
9117;SDS011;4594;50.994;7.126;2023-04-24T04:04:41;4.53;;;4.23;;
9117;SDS011;4594;50.994;7.126;2023-04-24T04:07:06;5.47;;;4.97;;
9117;SDS011;4594;50.994;7.126;2023-04-24T04:09:32;4.83;;;4.33;;
9117;SDS011;4594;50.994;7.126;2023-04-24T04:11:58;4.43;;;4.13;;
9117;SDS011;4594;50.994;7.126;2023-04-24T04:14:25;4.13;;;3.90;;
9117;SDS011;4594;50.994;7.126;2023-04-24T04:16:52;5.27;;;4.77;;
9117;SDS011;4594;50.994;7.126;2023-04-24T04:19:17;5.13;;;4.73;;
9117;SDS011;4594;50.994;7.126;2023-04-24T04:21:43;4.97;;;4.57;;
9117;SDS011;4594;50.994;7.126;2023-04-24T04:24:10;6.03;;;4.83;;
9117;SDS011;4594;50.994;7.126;2023-04-24T04:26:36;5.57;;;4.77;;
9117;SDS011;4594;50.994;7.126;2023-04-24T04:29:03;4.87;;;4.47;;
9117;SDS011;4594;50.994;7.126;2023-04-24T04:31:29;4.90;;;4.47;;
9117;SDS011;4594;50.994;7.126;2023-04-24T04:33:55;4.67;;;4.37;;
9117;SDS011;4594;50.994;7.126;2023-04-24T04:36:21;4.70;;;4.20;;
9117;SDS011;4594;50.994;7.126;2023-04-24T04:38:47;4.57;;;4.27;;
9117;SDS011;4594;50.994;7.126;2023-04-24T04:41:13;4.63;;;4.33;;
9117;SDS011;4594;50.994;7.126;2023-04-24T04:43:39;4.50;;;4.20;;
9117;SDS011;4594;50.994;7.126;2023-04-24T04:46:05;5.23;;;4.77;;
9117;SDS011;4594;50.994;7.126;2023-04-24T04:48:33;5.70;;;4.70;;
9117;SDS011;4594;50.994;7.126;2023-04-24T04:50:59;4.67;;;4.37;;
9117;SDS011;4594;50.994;7.126;2023-04-24T04:53:25;4.30;;;4.00;;
9117;SDS011;4594;50.994;7.126;2023-04-24T04:55:51;4.27;;;4.07;;
9117;SDS011;4594;50.994;7.126;2023-04-24T04:58:17;4.30;;;4.10;;
9117;SDS011;4594;50.994;7.126;2023-04-24T05:00:43;5.33;;;4.57;;
9117;SDS011;4594;50.994;7.126;2023-04-24T05:03:09;4.37;;;4.07;;
9117;SDS011;4594;50.994;7.126;2023-04-24T05:05:35;4.37;;;4.10;;
9117;SDS011;4594;50.994;7.126;2023-04-24T05:08:00;4.50;;;4.10;;
9117;SDS011;4594;50.994;7.126;2023-04-24T05:10:26;4.43;;;4.13;;
9117;SDS011;4594;50.994;7.126;2023-04-24T05:12:52;5.00;;;4.57;;
9117;SDS011;4594;50.994;7.126;2023-04-24T05:15:17;4.83;;;4.10;;
9117;SDS011;4594;50.994;7.126;2023-04-24T05:17:43;5.27;;;4.77;;
9117;SDS011;4594;50.994;7.126;2023-04-24T05:20:09;5.50;;;4.00;;
9117;SDS011;4594;50.994;7.126;2023-04-24T05:22:35;5.30;;;4.90;;
9117;SDS011;4594;50.994;7.126;2023-04-24T05:25:01;5.13;;;4.30;;
9117;SDS011;4594;50.994;7.126;2023-04-24T05:27:27;4.80;;;4.40;;
9117;SDS011;4594;50.994;7.126;2023-04-24T05:29:53;4.43;;;4.13;;
9117;SDS011;4594;50.994;7.126;2023-04-24T05:32:19;5.07;;;4.57;;
9117;SDS011;4594;50.994;7.126;2023-04-24T05:34:44;5.07;;;4.63;;
9117;SDS011;4594;50.994;7.126;2023-04-24T05:37:10;5.00;;;4.50;;
9117;SDS011;4594;50.994;7.126;2023-04-24T05:39:36;4.63;;;4.33;;
9117;SDS011;4594;50.994;7.126;2023-04-24T05:42:02;5.30;;;4.63;;
9117;SDS011;4594;50.994;7.126;2023-04-24T05:44:29;5.17;;;4.67;;
9117;SDS011;4594;50.994;7.126;2023-04-24T05:46:55;5.50;;;4.97;;
9117;SDS011;4594;50.994;7.126;2023-04-24T05:49:21;4.97;;;4.57;;
9117;SDS011;4594;50.994;7.126;2023-04-24T05:51:47;4.73;;;4.43;;
9117;SDS011;4594;50.994;7.126;2023-04-24T05:54:13;4.83;;;4.43;;
9117;SDS011;4594;50.994;7.126;2023-04-24T05:56:39;4.97;;;4.57;;
9117;SDS011;4594;50.994;7.126;2023-04-24T05:59:05;5.77;;;5.27;;
9117;SDS011;4594;50.994;7.126;2023-04-24T06:01:31;4.90;;;4.60;;
9117;SDS011;4594;50.994;7.126;2023-04-24T06:03:57;4.27;;;4.07;;
9117;SDS011;4594;50.994;7.126;2023-04-24T06:06:23;4.90;;;4.50;;
9117;SDS011;4594;50.994;7.126;2023-04-24T06:08:49;6.37;;;5.20;;
9117;SDS011;4594;50.994;7.126;2023-04-24T06:11:15;5.27;;;4.87;;
9117;SDS011;4594;50.994;7.126;2023-04-24T06:13:41;5.27;;;4.87;;
9117;SDS011;4594;50.994;7.126;2023-04-24T06:16:06;5.17;;;4.70;;
9117;SDS011;4594;50.994;7.126;2023-04-24T06:18:32;5.63;;;5.07;;
9117;SDS011;4594;50.994;7.126;2023-04-24T06:20:58;7.13;;;4.90;;
9117;SDS011;4594;50.994;7.126;2023-04-24T06:23:24;5.37;;;4.90;;
9117;SDS011;4594;50.994;7.126;2023-04-24T06:25:50;8.50;;;4.80;;
9117;SDS011;4594;50.994;7.126;2023-04-24T06:28:16;6.67;;;4.70;;
9117;SDS011;4594;50.994;7.126;2023-04-24T06:30:42;4.73;;;4.33;;
9117;SDS011;4594;50.994;7.126;2023-04-24T06:33:08;6.10;;;5.23;;
9117;SDS011;4594;50.994;7.126;2023-04-24T06:35:34;5.63;;;5.13;;
9117;SDS011;4594;50.994;7.126;2023-04-24T06:38:01;5.83;;;5.23;;
9117;SDS011;4594;50.994;7.126;2023-04-24T06:40:26;5.70;;;5.20;;
9117;SDS011;4594;50.994;7.126;2023-04-24T06:42:52;6.23;;;5.63;;
9117;SDS011;4594;50.994;7.126;2023-04-24T06:45:18;5.47;;;4.97;;
9117;SDS011;4594;50.994;7.126;2023-04-24T06:47:43;5.33;;;4.80;;
9117;SDS011;4594;50.994;7.126;2023-04-24T06:50:09;5.97;;;5.53;;
9117;SDS011;4594;50.994;7.126;2023-04-24T06:52:36;6.47;;;5.87;;
9117;SDS011;4594;50.994;7.126;2023-04-24T06:55:03;6.23;;;5.67;;
9117;SDS011;4594;50.994;7.126;2023-04-24T06:57:30;7.07;;;5.80;;
9117;SDS011;4594;50.994;7.126;2023-04-24T06:59:56;8.23;;;5.40;;
9117;SDS011;4594;50.994;7.126;2023-04-24T07:02:22;5.37;;;4.97;;
9117;SDS011;4594;50.994;7.126;2023-04-24T07:04:48;4.63;;;4.23;;
9117;SDS011;4594;50.994;7.126;2023-04-24T07:07:13;4.10;;;3.90;;
9117;SDS011;4594;50.994;7.126;2023-04-24T07:09:39;3.53;;;3.33;;
9117;SDS011;4594;50.994;7.126;2023-04-24T07:12:10;4.73;;;3.27;;
9117;SDS011;4594;50.994;7.126;2023-04-24T07:14:37;3.43;;;3.23;;
9117;SDS011;4594;50.994;7.126;2023-04-24T07:17:05;3.67;;;3.37;;
9117;SDS011;4594;50.994;7.126;2023-04-24T07:19:32;3.23;;;3.00;;
9117;SDS011;4594;50.994;7.126;2023-04-24T07:22:00;3.47;;;3.27;;
9117;SDS011;4594;50.994;7.126;2023-04-24T07:24:26;3.27;;;3.17;;
9117;SDS011;4594;50.994;7.126;2023-04-24T07:26:52;3.07;;;2.93;;
9117;SDS011;4594;50.994;7.126;2023-04-24T07:29:19;3.37;;;3.10;;
9117;SDS011;4594;50.994;7.126;2023-04-24T07:31:45;3.00;;;2.90;;
9117;SDS011;4594;50.994;7.126;2023-04-24T07:34:11;2.97;;;2.87;;
9117;SDS011;4594;50.994;7.126;2023-04-24T07:36:37;4.37;;;3.10;;
9117;SDS011;4594;50.994;7.126;2023-04-24T07:39:03;2.87;;;2.77;;
9117;SDS011;4594;50.994;7.126;2023-04-24T07:41:30;2.83;;;2.73;;
9117;SDS011;4594;50.994;7.126;2023-04-24T07:43:56;2.83;;;2.73;;
9117;SDS011;4594;50.994;7.126;2023-04-24T07:46:23;2.50;;;2.40;;
9117;SDS011;4594;50.994;7.126;2023-04-24T07:48:49;2.70;;;2.60;;
9117;SDS011;4594;50.994;7.126;2023-04-24T07:51:15;2.70;;;2.50;;
9117;SDS011;4594;50.994;7.126;2023-04-24T07:53:42;2.47;;;2.37;;
9117;SDS011;4594;50.994;7.126;2023-04-24T07:56:08;2.40;;;2.17;;
9117;SDS011;4594;50.994;7.126;2023-04-24T07:58:34;1.90;;;1.90;;
9117;SDS011;4594;50.994;7.126;2023-04-24T08:01:00;2.10;;;2.10;;
9117;SDS011;4594;50.994;7.126;2023-04-24T08:03:26;1.87;;;1.87;;
9117;SDS011;4594;50.994;7.126;2023-04-24T08:05:52;2.03;;;2.03;;
9117;SDS011;4594;50.994;7.126;2023-04-24T08:08:18;2.40;;;2.20;;
9117;SDS011;4594;50.994;7.126;2023-04-24T08:10:47;2.27;;;2.20;;
9117;SDS011;4594;50.994;7.126;2023-04-24T08:13:13;2.20;;;2.20;;
9117;SDS011;4594;50.994;7.126;2023-04-24T08:15:38;3.10;;;2.10;;
9117;SDS011;4594;50.994;7.126;2023-04-24T08:18:04;1.93;;;1.93;;
9117;SDS011;4594;50.994;7.126;2023-04-24T08:20:30;2.10;;;2.10;;
9117;SDS011;4594;50.994;7.126;2023-04-24T08:22:56;2.20;;;2.20;;
9117;SDS011;4594;50.994;7.126;2023-04-24T08:25:22;1.90;;;1.90;;
9117;SDS011;4594;50.994;7.126;2023-04-24T08:27:51;2.30;;;2.20;;
9117;SDS011;4594;50.994;7.126;2023-04-24T08:30:17;2.00;;;2.00;;
9117;SDS011;4594;50.994;7.126;2023-04-24T08:32:43;1.80;;;1.80;;
9117;SDS011;4594;50.994;7.126;2023-04-24T08:35:09;1.93;;;1.93;;
9117;SDS011;4594;50.994;7.126;2023-04-24T08:37:35;2.00;;;1.90;;
9117;SDS011;4594;50.994;7.126;2023-04-24T08:40:01;2.17;;;2.03;;
9117;SDS011;4594;50.994;7.126;2023-04-24T08:42:44;2.10;;;2.10;;
9117;SDS011;4594;50.994;7.126;2023-04-24T08:45:10;5.50;;;2.30;;
9117;SDS011;4594;50.994;7.126;2023-04-24T08:47:38;2.00;;;2.00;;
9117;SDS011;4594;50.994;7.126;2023-04-24T08:50:05;2.07;;;2.07;;
9117;SDS011;4594;50.994;7.126;2023-04-24T08:52:33;2.40;;;2.30;;
9117;SDS011;4594;50.994;7.126;2023-04-24T08:55:00;2.77;;;2.47;;
9117;SDS011;4594;50.994;7.126;2023-04-24T08:57:26;2.20;;;2.10;;
9117;SDS011;4594;50.994;7.126;2023-04-24T08:59:53;3.03;;;2.30;;
9117;SDS011;4594;50.994;7.126;2023-04-24T09:02:21;2.70;;;2.60;;
9117;SDS011;4594;50.994;7.126;2023-04-24T09:04:48;2.70;;;2.60;;
9117;SDS011;4594;50.994;7.126;2023-04-24T09:07:16;2.50;;;2.40;;
9117;SDS011;4594;50.994;7.126;2023-04-24T09:09:44;2.67;;;2.57;;
9117;SDS011;4594;50.994;7.126;2023-04-24T09:12:10;3.20;;;2.83;;
9117;SDS011;4594;50.994;7.126;2023-04-24T09:14:36;2.93;;;2.83;;
9117;SDS011;4594;50.994;7.126;2023-04-24T09:17:09;2.90;;;2.70;;
9117;SDS011;4594;50.994;7.126;2023-04-24T09:19:36;2.97;;;2.87;;
9117;SDS011;4594;50.994;7.126;2023-04-24T09:22:05;3.63;;;3.40;;
9117;SDS011;4594;50.994;7.126;2023-04-24T09:24:33;2.60;;;2.50;;
9117;SDS011;4594;50.994;7.126;2023-04-24T09:27:00;3.07;;;2.70;;
9117;SDS011;4594;50.994;7.126;2023-04-24T09:29:27;3.70;;;3.50;;
9117;SDS011;4594;50.994;7.126;2023-04-24T09:31:53;3.10;;;3.00;;
9117;SDS011;4594;50.994;7.126;2023-04-24T09:34:22;3.20;;;3.00;;
9117;SDS011;4594;50.994;7.126;2023-04-24T09:36:50;3.57;;;3.37;;
9117;SDS011;4594;50.994;7.126;2023-04-24T09:39:17;4.10;;;3.20;;
9117;SDS011;4594;50.994;7.126;2023-04-24T09:41:51;4.17;;;3.80;;
9117;SDS011;4594;50.994;7.126;2023-04-24T09:44:25;7.17;;;4.00;;
9117;SDS011;4594;50.994;7.126;2023-04-24T09:46:54;3.73;;;3.47;;
9117;SDS011;4594;50.994;7.126;2023-04-24T09:52:10;4.23;;;3.93;;
9117;SDS011;4594;50.994;7.126;2023-04-24T09:54:36;4.20;;;3.90;;
9117;SDS011;4594;50.994;7.126;2023-04-24T09:57:03;4.00;;;3.70;;
9117;SDS011;4594;50.994;7.126;2023-04-24T09:59:32;14.30;;;3.87;;
9117;SDS011;4594;50.994;7.126;2023-04-24T10:01:58;5.47;;;3.50;;
9117;SDS011;4594;50.994;7.126;2023-04-24T10:04:26;3.57;;;3.37;;
9117;SDS011;4594;50.994;7.126;2023-04-24T10:06:54;4.40;;;4.00;;
9117;SDS011;4594;50.994;7.126;2023-04-24T10:09:23;4.23;;;3.90;;
9117;SDS011;4594;50.994;7.126;2023-04-24T10:11:51;4.20;;;3.97;;
9117;SDS011;4594;50.994;7.126;2023-04-24T10:14:20;4.30;;;4.00;;
9117;SDS011;4594;50.994;7.126;2023-04-24T10:16:50;4.77;;;4.37;;
9117;SDS011;4594;50.994;7.126;2023-04-24T10:19:25;8.07;;;4.50;;
9117;SDS011;4594;50.994;7.126;2023-04-24T10:21:51;5.17;;;4.60;;
9117;SDS011;4594;50.994;7.126;2023-04-24T10:24:20;5.23;;;4.50;;
9117;SDS011;4594;50.994;7.126;2023-04-24T10:26:46;6.33;;;4.97;;
9117;SDS011;4594;50.994;7.126;2023-04-24T10:29:16;8.47;;;5.20;;
9117;SDS011;4594;50.994;7.126;2023-04-24T10:31:43;5.43;;;5.03;;
9117;SDS011;4594;50.994;7.126;2023-04-24T10:34:13;5.80;;;5.30;;
9117;SDS011;4594;50.994;7.126;2023-04-24T10:36:46;5.70;;;4.60;;
9117;SDS011;4594;50.994;7.126;2023-04-24T10:39:16;5.87;;;5.23;;
9117;SDS011;4594;50.994;7.126;2023-04-24T10:41:43;5.03;;;4.50;;
9117;SDS011;4594;50.994;7.126;2023-04-24T10:44:12;9.50;;;5.30;;
9117;SDS011;4594;50.994;7.126;2023-04-24T10:46:44;6.40;;;5.17;;
9117;SDS011;4594;50.994;7.126;2023-04-24T10:49:13;7.13;;;4.83;;
9117;SDS011;4594;50.994;7.126;2023-04-24T10:51:52;6.97;;;4.73;;
9117;SDS011;4594;50.994;7.126;2023-04-24T10:54:22;7.93;;;4.63;;
9117;SDS011;4594;50.994;7.126;2023-04-24T10:56:50;4.87;;;4.47;;
9117;SDS011;4594;50.994;7.126;2023-04-24T10:59:23;4.33;;;4.03;;
9117;SDS011;4594;50.994;7.126;2023-04-24T11:01:59;5.10;;;4.57;;
9117;SDS011;4594;50.994;7.126;2023-04-24T11:04:29;5.17;;;3.77;;
9117;SDS011;4594;50.994;7.126;2023-04-24T11:06:56;7.07;;;4.23;;
9117;SDS011;4594;50.994;7.126;2023-04-24T11:09:22;5.93;;;3.83;;
9117;SDS011;4594;50.994;7.126;2023-04-24T11:12:02;5.10;;;4.20;;
9117;SDS011;4594;50.994;7.126;2023-04-24T11:20:05;3.43;;;3.13;;
9117;SDS011;4594;50.994;7.126;2023-04-24T11:22:36;3.70;;;3.40;;
9117;SDS011;4594;50.994;7.126;2023-04-24T11:25:05;4.20;;;3.43;;
9117;SDS011;4594;50.994;7.126;2023-04-24T11:27:37;3.60;;;3.30;;
9117;SDS011;4594;50.994;7.126;2023-04-24T11:30:05;3.80;;;3.00;;
9117;SDS011;4594;50.994;7.126;2023-04-24T11:35:02;3.93;;;3.33;;
9117;SDS011;4594;50.994;7.126;2023-04-24T11:37:39;4.93;;;3.47;;
9117;SDS011;4594;50.994;7.126;2023-04-24T11:40:09;5.10;;;3.43;;
9117;SDS011;4594;50.994;7.126;2023-04-24T11:42:41;5.17;;;3.20;;
9117;SDS011;4594;50.994;7.126;2023-04-24T11:45:13;8.87;;;3.47;;
9117;SDS011;4594;50.994;7.126;2023-04-24T11:47:40;3.53;;;3.20;;
9117;SDS011;4594;50.994;7.126;2023-04-24T11:50:08;4.63;;;3.10;;
9117;SDS011;4594;50.994;7.126;2023-04-24T11:52:38;6.57;;;3.20;;
9117;SDS011;4594;50.994;7.126;2023-04-24T11:57:50;7.80;;;3.50;;
9117;SDS011;4594;50.994;7.126;2023-04-24T12:00:22;6.57;;;3.83;;
9117;SDS011;4594;50.994;7.126;2023-04-24T12:03:07;7.63;;;3.80;;
9117;SDS011;4594;50.994;7.126;2023-04-24T12:05:34;7.03;;;4.40;;
9117;SDS011;4594;50.994;7.126;2023-04-24T12:08:00;7.00;;;4.80;;
9117;SDS011;4594;50.994;7.126;2023-04-24T12:10:27;9.30;;;4.87;;
9117;SDS011;4594;50.994;7.126;2023-04-24T12:12:55;7.80;;;4.00;;
9117;SDS011;4594;50.994;7.126;2023-04-24T12:15:22;5.43;;;4.07;;
9117;SDS011;4594;50.994;7.126;2023-04-24T12:17:52;5.43;;;3.43;;
9117;SDS011;4594;50.994;7.126;2023-04-24T12:20:30;3.97;;;3.60;;
9117;SDS011;4594;50.994;7.126;2023-04-24T12:22:58;6.87;;;3.57;;
9117;SDS011;4594;50.994;7.126;2023-04-24T12:25:26;6.20;;;3.87;;
9117;SDS011;4594;50.994;7.126;2023-04-24T12:27:55;7.83;;;3.93;;
9117;SDS011;4594;50.994;7.126;2023-04-24T12:30:42;8.90;;;3.73;;
9117;SDS011;4594;50.994;7.126;2023-04-24T12:33:16;4.63;;;3.33;;
9117;SDS011;4594;50.994;7.126;2023-04-24T12:35:47;4.90;;;3.33;;
9117;SDS011;4594;50.994;7.126;2023-04-24T12:38:21;4.03;;;3.13;;
9117;SDS011;4594;50.994;7.126;2023-04-24T12:41:01;5.40;;;4.00;;
9117;SDS011;4594;50.994;7.126;2023-04-24T12:43:31;5.60;;;4.27;;
9117;SDS011;4594;50.994;7.126;2023-04-24T12:45:57;5.73;;;4.17;;
9117;SDS011;4594;50.994;7.126;2023-04-24T12:48:24;6.57;;;3.60;;
9117;SDS011;4594;50.994;7.126;2023-04-24T12:50:54;3.90;;;3.57;;
9117;SDS011;4594;50.994;7.126;2023-04-24T12:53:21;3.23;;;2.93;;
9117;SDS011;4594;50.994;7.126;2023-04-24T12:55:47;4.23;;;3.87;;
9117;SDS011;4594;50.994;7.126;2023-04-24T12:58:18;8.80;;;3.47;;
9117;SDS011;4594;50.994;7.126;2023-04-24T13:00:45;13.77;;;3.23;;
9117;SDS011;4594;50.994;7.126;2023-04-24T13:03:12;4.70;;;3.73;;
9117;SDS011;4594;50.994;7.126;2023-04-24T13:05:38;3.87;;;3.50;;
9117;SDS011;4594;50.994;7.126;2023-04-24T13:08:04;4.87;;;3.07;;
9117;SDS011;4594;50.994;7.126;2023-04-24T13:10:30;3.63;;;3.20;;
9117;SDS011;4594;50.994;7.126;2023-04-24T13:12:56;7.43;;;3.47;;
9117;SDS011;4594;50.994;7.126;2023-04-24T13:15:22;4.70;;;3.37;;
9117;SDS011;4594;50.994;7.126;2023-04-24T13:17:48;5.23;;;3.23;;
9117;SDS011;4594;50.994;7.126;2023-04-24T13:20:14;6.27;;;3.30;;
9117;SDS011;4594;50.994;7.126;2023-04-24T13:22:40;3.40;;;3.10;;
9117;SDS011;4594;50.994;7.126;2023-04-24T13:25:06;6.70;;;3.80;;
9117;SDS011;4594;50.994;7.126;2023-04-24T13:27:32;5.73;;;3.43;;
9117;SDS011;4594;50.994;7.126;2023-04-24T13:29:58;16.83;;;3.80;;
9117;SDS011;4594;50.994;7.126;2023-04-24T13:32:24;7.90;;;3.90;;
9117;SDS011;4594;50.994;7.126;2023-04-24T13:34:50;4.30;;;3.33;;
9117;SDS011;4594;50.994;7.126;2023-04-24T13:37:15;5.27;;;3.20;;
9117;SDS011;4594;50.994;7.126;2023-04-24T13:39:41;5.70;;;3.90;;
9117;SDS011;4594;50.994;7.126;2023-04-24T13:42:07;6.57;;;3.93;;
9117;SDS011;4594;50.994;7.126;2023-04-24T13:44:33;6.13;;;3.97;;
9117;SDS011;4594;50.994;7.126;2023-04-24T13:46:59;5.60;;;3.87;;
9117;SDS011;4594;50.994;7.126;2023-04-24T13:49:25;4.47;;;3.40;;
9117;SDS011;4594;50.994;7.126;2023-04-24T13:51:52;8.43;;;3.27;;
9117;SDS011;4594;50.994;7.126;2023-04-24T13:54:20;3.97;;;3.10;;
9117;SDS011;4594;50.994;7.126;2023-04-24T13:56:48;4.50;;;3.60;;
9117;SDS011;4594;50.994;7.126;2023-04-24T13:59:14;4.03;;;3.03;;
9117;SDS011;4594;50.994;7.126;2023-04-24T14:01:40;6.10;;;3.53;;
9117;SDS011;4594;50.994;7.126;2023-04-24T14:04:06;3.30;;;3.10;;
9117;SDS011;4594;50.994;7.126;2023-04-24T14:06:31;3.80;;;3.40;;
9117;SDS011;4594;50.994;7.126;2023-04-24T14:08:57;7.23;;;3.40;;
9117;SDS011;4594;50.994;7.126;2023-04-24T14:11:23;5.53;;;3.40;;
9117;SDS011;4594;50.994;7.126;2023-04-24T14:13:49;5.10;;;3.10;;
9117;SDS011;4594;50.994;7.126;2023-04-24T14:16:14;8.03;;;3.17;;
9117;SDS011;4594;50.994;7.126;2023-04-24T14:18:40;5.40;;;3.10;;
9117;SDS011;4594;50.994;7.126;2023-04-24T14:21:06;5.33;;;3.27;;
9117;SDS011;4594;50.994;7.126;2023-04-24T14:23:32;3.40;;;3.10;;
9117;SDS011;4594;50.994;7.126;2023-04-24T14:25:58;4.27;;;3.27;;
9117;SDS011;4594;50.994;7.126;2023-04-24T14:28:24;4.53;;;3.30;;
9117;SDS011;4594;50.994;7.126;2023-04-24T14:30:51;10.17;;;3.63;;
9117;SDS011;4594;50.994;7.126;2023-04-24T14:33:17;5.53;;;3.67;;
9117;SDS011;4594;50.994;7.126;2023-04-24T14:35:43;3.57;;;2.87;;
9117;SDS011;4594;50.994;7.126;2023-04-24T14:38:09;5.20;;;3.80;;
9117;SDS011;4594;50.994;7.126;2023-04-24T14:40:36;3.67;;;3.37;;
9117;SDS011;4594;50.994;7.126;2023-04-24T14:43:02;4.10;;;3.60;;
9117;SDS011;4594;50.994;7.126;2023-04-24T14:45:28;5.57;;;3.93;;
9117;SDS011;4594;50.994;7.126;2023-04-24T14:47:54;7.77;;;3.57;;
9117;SDS011;4594;50.994;7.126;2023-04-24T14:50:21;4.23;;;3.70;;
9117;SDS011;4594;50.994;7.126;2023-04-24T14:52:47;3.77;;;3.47;;
9117;SDS011;4594;50.994;7.126;2023-04-24T14:55:13;5.30;;;3.53;;
9117;SDS011;4594;50.994;7.126;2023-04-24T14:57:39;3.73;;;3.40;;
9117;SDS011;4594;50.994;7.126;2023-04-24T15:00:05;5.40;;;3.70;;
9117;SDS011;4594;50.994;7.126;2023-04-24T15:02:35;5.97;;;4.23;;
9117;SDS011;4594;50.994;7.126;2023-04-24T15:05:04;5.60;;;3.33;;
9117;SDS011;4594;50.994;7.126;2023-04-24T15:07:31;3.70;;;3.40;;
9117;SDS011;4594;50.994;7.126;2023-04-24T15:09:57;3.53;;;3.27;;
9117;SDS011;4594;50.994;7.126;2023-04-24T15:12:23;3.60;;;3.30;;
9117;SDS011;4594;50.994;7.126;2023-04-24T15:14:49;3.77;;;3.40;;
9117;SDS011;4594;50.994;7.126;2023-04-24T15:17:15;4.57;;;3.43;;
9117;SDS011;4594;50.994;7.126;2023-04-24T15:19:41;3.80;;;3.20;;
9117;SDS011;4594;50.994;7.126;2023-04-24T15:22:06;3.33;;;2.97;;
9117;SDS011;4594;50.994;7.126;2023-04-24T15:24:32;3.93;;;3.07;;
9117;SDS011;4594;50.994;7.126;2023-04-24T15:26:58;3.00;;;2.80;;